sensor_id;sensor_type;location;lat;lon;timestamp;P1;durP1;ratioP1;P2;durP2;ratioP2
43606;SDS011;29197;44.788;10.366;2022-12-24T00:00:06;50.57;;;28.07;;
43606;SDS011;29197;44.788;10.366;2022-12-24T00:02:57;55.63;;;29.57;;
43606;SDS011;29197;44.788;10.366;2022-12-24T00:05:47;53.43;;;28.97;;
43606;SDS011;29197;44.788;10.366;2022-12-24T00:08:37;56.73;;;30.03;;
43606;SDS011;29197;44.788;10.366;2022-12-24T00:11:27;56.73;;;29.57;;
43606;SDS011;29197;44.788;10.366;2022-12-24T00:14:16;52.80;;;29.23;;
43606;SDS011;29197;44.788;10.366;2022-12-24T00:17:05;57.63;;;30.90;;
43606;SDS011;29197;44.788;10.366;2022-12-24T00:19:55;58.30;;;30.37;;
43606;SDS011;29197;44.788;10.366;2022-12-24T00:22:46;55.47;;;29.20;;
43606;SDS011;29197;44.788;10.366;2022-12-24T00:25:36;56.40;;;30.43;;
43606;SDS011;29197;44.788;10.366;2022-12-24T00:28:25;59.50;;;32.27;;
43606;SDS011;29197;44.788;10.366;2022-12-24T00:31:15;58.37;;;30.17;;
43606;SDS011;29197;44.788;10.366;2022-12-24T00:34:06;56.33;;;31.50;;
43606;SDS011;29197;44.788;10.366;2022-12-24T00:36:56;59.17;;;29.87;;
43606;SDS011;29197;44.788;10.366;2022-12-24T00:39:46;64.90;;;31.47;;
43606;SDS011;29197;44.788;10.366;2022-12-24T00:42:35;57.60;;;31.20;;
43606;SDS011;29197;44.788;10.366;2022-12-24T00:45:24;64.07;;;31.10;;
43606;SDS011;29197;44.788;10.366;2022-12-24T00:48:13;57.33;;;32.23;;
43606;SDS011;29197;44.788;10.366;2022-12-24T00:51:03;57.47;;;32.00;;
43606;SDS011;29197;44.788;10.366;2022-12-24T00:53:53;60.70;;;32.67;;
43606;SDS011;29197;44.788;10.366;2022-12-24T00:56:44;60.97;;;31.17;;
43606;SDS011;29197;44.788;10.366;2022-12-24T00:59:33;60.37;;;32.13;;
43606;SDS011;29197;44.788;10.366;2022-12-24T01:02:22;63.83;;;33.03;;
43606;SDS011;29197;44.788;10.366;2022-12-24T01:05:12;66.10;;;33.60;;
43606;SDS011;29197;44.788;10.366;2022-12-24T01:08:01;64.17;;;33.63;;
43606;SDS011;29197;44.788;10.366;2022-12-24T01:10:51;70.30;;;34.60;;
43606;SDS011;29197;44.788;10.366;2022-12-24T01:13:42;71.70;;;36.77;;
43606;SDS011;29197;44.788;10.366;2022-12-24T01:16:31;73.33;;;36.90;;
43606;SDS011;29197;44.788;10.366;2022-12-24T01:19:21;67.60;;;34.40;;
43606;SDS011;29197;44.788;10.366;2022-12-24T01:22:10;64.03;;;34.10;;
43606;SDS011;29197;44.788;10.366;2022-12-24T01:24:59;68.50;;;35.57;;
43606;SDS011;29197;44.788;10.366;2022-12-24T01:27:48;66.30;;;35.27;;
43606;SDS011;29197;44.788;10.366;2022-12-24T01:30:38;70.80;;;35.53;;
43606;SDS011;29197;44.788;10.366;2022-12-24T01:33:28;67.93;;;35.47;;
43606;SDS011;29197;44.788;10.366;2022-12-24T01:36:18;69.30;;;36.53;;
43606;SDS011;29197;44.788;10.366;2022-12-24T01:39:07;72.33;;;34.30;;
43606;SDS011;29197;44.788;10.366;2022-12-24T01:41:56;67.63;;;35.37;;
43606;SDS011;29197;44.788;10.366;2022-12-24T01:48:33;61.47;;;32.87;;
43606;SDS011;29197;44.788;10.366;2022-12-24T01:51:26;70.50;;;36.80;;
43606;SDS011;29197;44.788;10.366;2022-12-24T01:54:22;79.60;;;40.07;;
43606;SDS011;29197;44.788;10.366;2022-12-24T01:57:17;74.00;;;38.20;;
43606;SDS011;29197;44.788;10.366;2022-12-24T02:00:11;72.90;;;36.97;;
43606;SDS011;29197;44.788;10.366;2022-12-24T02:03:03;77.53;;;40.20;;
43606;SDS011;29197;44.788;10.366;2022-12-24T02:05:53;68.83;;;36.73;;
43606;SDS011;29197;44.788;10.366;2022-12-24T02:08:45;73.30;;;37.70;;
43606;SDS011;29197;44.788;10.366;2022-12-24T02:11:34;74.00;;;38.60;;
43606;SDS011;29197;44.788;10.366;2022-12-24T02:14:26;75.67;;;37.60;;
43606;SDS011;29197;44.788;10.366;2022-12-24T02:17:20;73.10;;;36.60;;
43606;SDS011;29197;44.788;10.366;2022-12-24T02:20:22;69.97;;;37.30;;
43606;SDS011;29197;44.788;10.366;2022-12-24T02:27:10;70.10;;;36.00;;
43606;SDS011;29197;44.788;10.366;2022-12-24T02:30:13;70.97;;;37.03;;
43606;SDS011;29197;44.788;10.366;2022-12-24T02:33:08;68.60;;;34.80;;
43606;SDS011;29197;44.788;10.366;2022-12-24T02:36:05;65.27;;;35.03;;
43606;SDS011;29197;44.788;10.366;2022-12-24T02:39:02;75.33;;;36.47;;
43606;SDS011;29197;44.788;10.366;2022-12-24T02:41:52;71.60;;;35.50;;
43606;SDS011;29197;44.788;10.366;2022-12-24T02:44:54;66.50;;;36.27;;
43606;SDS011;29197;44.788;10.366;2022-12-24T02:47:49;71.70;;;37.70;;
43606;SDS011;29197;44.788;10.366;2022-12-24T02:50:52;66.37;;;35.03;;
43606;SDS011;29197;44.788;10.366;2022-12-24T02:53:42;75.73;;;37.63;;
43606;SDS011;29197;44.788;10.366;2022-12-24T02:56:59;68.47;;;36.00;;
43606;SDS011;29197;44.788;10.366;2022-12-24T02:59:58;64.13;;;34.73;;
43606;SDS011;29197;44.788;10.366;2022-12-24T03:02:59;70.57;;;35.37;;
43606;SDS011;29197;44.788;10.366;2022-12-24T03:06:10;73.90;;;36.73;;
43606;SDS011;29197;44.788;10.366;2022-12-24T03:09:05;71.30;;;33.73;;
43606;SDS011;29197;44.788;10.366;2022-12-24T03:12:03;65.60;;;33.97;;
43606;SDS011;29197;44.788;10.366;2022-12-24T03:14:57;67.63;;;34.30;;
43606;SDS011;29197;44.788;10.366;2022-12-24T03:17:48;66.63;;;34.87;;
43606;SDS011;29197;44.788;10.366;2022-12-24T03:20:43;60.00;;;32.93;;
43606;SDS011;29197;44.788;10.366;2022-12-24T03:23:35;71.00;;;34.90;;
43606;SDS011;29197;44.788;10.366;2022-12-24T03:26:24;59.53;;;32.40;;
43606;SDS011;29197;44.788;10.366;2022-12-24T03:32:22;68.07;;;36.03;;
43606;SDS011;29197;44.788;10.366;2022-12-24T03:35:12;66.67;;;36.00;;
43606;SDS011;29197;44.788;10.366;2022-12-24T03:38:03;75.60;;;37.43;;
43606;SDS011;29197;44.788;10.366;2022-12-24T03:40:51;65.73;;;33.97;;
43606;SDS011;29197;44.788;10.366;2022-12-24T03:43:40;63.20;;;33.53;;
43606;SDS011;29197;44.788;10.366;2022-12-24T03:46:29;68.50;;;37.77;;
43606;SDS011;29197;44.788;10.366;2022-12-24T03:49:19;70.77;;;35.23;;
43606;SDS011;29197;44.788;10.366;2022-12-24T03:52:08;68.70;;;34.33;;
43606;SDS011;29197;44.788;10.366;2022-12-24T03:54:58;65.83;;;34.03;;
43606;SDS011;29197;44.788;10.366;2022-12-24T03:57:47;70.93;;;34.97;;
43606;SDS011;29197;44.788;10.366;2022-12-24T04:00:37;68.77;;;34.40;;
43606;SDS011;29197;44.788;10.366;2022-12-24T04:03:26;64.50;;;34.07;;
43606;SDS011;29197;44.788;10.366;2022-12-24T04:06:16;59.07;;;31.47;;
43606;SDS011;29197;44.788;10.366;2022-12-24T04:09:05;64.00;;;33.73;;
43606;SDS011;29197;44.788;10.366;2022-12-24T04:11:55;57.77;;;31.17;;
43606;SDS011;29197;44.788;10.366;2022-12-24T04:14:44;55.27;;;31.30;;
43606;SDS011;29197;44.788;10.366;2022-12-24T04:17:33;56.53;;;30.77;;
43606;SDS011;29197;44.788;10.366;2022-12-24T04:20:22;55.90;;;30.53;;
43606;SDS011;29197;44.788;10.366;2022-12-24T04:23:11;57.53;;;29.60;;
43606;SDS011;29197;44.788;10.366;2022-12-24T04:26:01;58.33;;;30.80;;
43606;SDS011;29197;44.788;10.366;2022-12-24T04:28:53;55.93;;;28.87;;
43606;SDS011;29197;44.788;10.366;2022-12-24T04:31:42;58.97;;;30.77;;
43606;SDS011;29197;44.788;10.366;2022-12-24T04:34:32;50.47;;;28.60;;
43606;SDS011;29197;44.788;10.366;2022-12-24T04:37:21;54.63;;;30.93;;
43606;SDS011;29197;44.788;10.366;2022-12-24T04:40:10;54.23;;;30.33;;
43606;SDS011;29197;44.788;10.366;2022-12-24T04:43:00;54.47;;;28.63;;
43606;SDS011;29197;44.788;10.366;2022-12-24T04:45:51;55.73;;;29.73;;
43606;SDS011;29197;44.788;10.366;2022-12-24T04:48:40;52.30;;;28.00;;
43606;SDS011;29197;44.788;10.366;2022-12-24T04:51:29;62.67;;;30.27;;
43606;SDS011;29197;44.788;10.366;2022-12-24T04:54:18;60.60;;;31.23;;
43606;SDS011;29197;44.788;10.366;2022-12-24T04:57:07;59.60;;;31.80;;
43606;SDS011;29197;44.788;10.366;2022-12-24T04:59:56;57.33;;;30.67;;
43606;SDS011;29197;44.788;10.366;2022-12-24T05:02:46;54.70;;;30.10;;
43606;SDS011;29197;44.788;10.366;2022-12-24T05:05:35;57.30;;;32.70;;
43606;SDS011;29197;44.788;10.366;2022-12-24T05:08:24;61.77;;;32.37;;
43606;SDS011;29197;44.788;10.366;2022-12-24T05:11:14;58.90;;;32.40;;
43606;SDS011;29197;44.788;10.366;2022-12-24T05:14:03;58.93;;;33.07;;
43606;SDS011;29197;44.788;10.366;2022-12-24T05:16:52;56.00;;;32.47;;
43606;SDS011;29197;44.788;10.366;2022-12-24T05:19:44;63.83;;;34.37;;
43606;SDS011;29197;44.788;10.366;2022-12-24T05:22:33;64.20;;;33.43;;
43606;SDS011;29197;44.788;10.366;2022-12-24T05:25:39;60.10;;;32.90;;
43606;SDS011;29197;44.788;10.366;2022-12-24T05:28:46;58.40;;;32.83;;
43606;SDS011;29197;44.788;10.366;2022-12-24T05:31:35;65.17;;;34.90;;
43606;SDS011;29197;44.788;10.366;2022-12-24T05:34:26;68.27;;;36.27;;
43606;SDS011;29197;44.788;10.366;2022-12-24T05:37:16;79.53;;;42.57;;
43606;SDS011;29197;44.788;10.366;2022-12-24T05:40:06;74.13;;;42.80;;
43606;SDS011;29197;44.788;10.366;2022-12-24T05:42:56;67.30;;;36.53;;
43606;SDS011;29197;44.788;10.366;2022-12-24T05:45:45;66.00;;;34.20;;
43606;SDS011;29197;44.788;10.366;2022-12-24T05:48:34;67.53;;;35.17;;
43606;SDS011;29197;44.788;10.366;2022-12-24T05:51:23;64.70;;;34.17;;
43606;SDS011;29197;44.788;10.366;2022-12-24T05:54:15;61.00;;;35.17;;
43606;SDS011;29197;44.788;10.366;2022-12-24T05:57:03;65.73;;;34.37;;
43606;SDS011;29197;44.788;10.366;2022-12-24T05:59:53;66.90;;;35.00;;
43606;SDS011;29197;44.788;10.366;2022-12-24T06:02:50;64.03;;;35.63;;
43606;SDS011;29197;44.788;10.366;2022-12-24T06:05:39;64.97;;;35.07;;
43606;SDS011;29197;44.788;10.366;2022-12-24T06:08:29;66.77;;;35.53;;
43606;SDS011;29197;44.788;10.366;2022-12-24T06:11:20;62.10;;;32.13;;
43606;SDS011;29197;44.788;10.366;2022-12-24T06:14:11;70.90;;;34.60;;
43606;SDS011;29197;44.788;10.366;2022-12-24T06:17:00;62.10;;;34.17;;
43606;SDS011;29197;44.788;10.366;2022-12-24T06:19:49;65.53;;;34.37;;
43606;SDS011;29197;44.788;10.366;2022-12-24T06:22:38;64.60;;;34.07;;
43606;SDS011;29197;44.788;10.366;2022-12-24T06:25:27;61.30;;;33.00;;
43606;SDS011;29197;44.788;10.366;2022-12-24T06:28:18;63.07;;;33.73;;
43606;SDS011;29197;44.788;10.366;2022-12-24T06:31:09;66.60;;;34.77;;
43606;SDS011;29197;44.788;10.366;2022-12-24T06:34:00;63.40;;;34.53;;
43606;SDS011;29197;44.788;10.366;2022-12-24T06:36:50;65.37;;;34.40;;
43606;SDS011;29197;44.788;10.366;2022-12-24T06:39:39;65.10;;;33.93;;
43606;SDS011;29197;44.788;10.366;2022-12-24T06:42:28;62.90;;;33.53;;
43606;SDS011;29197;44.788;10.366;2022-12-24T06:45:19;63.33;;;34.23;;
43606;SDS011;29197;44.788;10.366;2022-12-24T06:48:08;62.47;;;33.80;;
43606;SDS011;29197;44.788;10.366;2022-12-24T06:51:00;67.83;;;35.37;;
43606;SDS011;29197;44.788;10.366;2022-12-24T06:53:50;67.53;;;35.30;;
43606;SDS011;29197;44.788;10.366;2022-12-24T06:56:39;64.57;;;34.80;;
43606;SDS011;29197;44.788;10.366;2022-12-24T06:59:29;63.50;;;32.50;;
43606;SDS011;29197;44.788;10.366;2022-12-24T07:02:19;72.20;;;36.50;;
43606;SDS011;29197;44.788;10.366;2022-12-24T07:05:09;67.43;;;35.33;;
43606;SDS011;29197;44.788;10.366;2022-12-24T07:07:59;66.13;;;35.40;;
43606;SDS011;29197;44.788;10.366;2022-12-24T07:10:48;67.50;;;34.70;;
43606;SDS011;29197;44.788;10.366;2022-12-24T07:13:40;65.20;;;35.13;;
43606;SDS011;29197;44.788;10.366;2022-12-24T07:16:29;63.63;;;34.50;;
43606;SDS011;29197;44.788;10.366;2022-12-24T07:19:21;69.00;;;35.13;;
43606;SDS011;29197;44.788;10.366;2022-12-24T07:22:10;67.13;;;35.73;;
43606;SDS011;29197;44.788;10.366;2022-12-24T07:25:01;64.87;;;34.23;;
43606;SDS011;29197;44.788;10.366;2022-12-24T07:27:51;69.57;;;37.93;;
43606;SDS011;29197;44.788;10.366;2022-12-24T07:30:40;74.77;;;36.30;;
43606;SDS011;29197;44.788;10.366;2022-12-24T07:33:30;68.23;;;34.97;;
43606;SDS011;29197;44.788;10.366;2022-12-24T07:36:21;66.60;;;35.23;;
43606;SDS011;29197;44.788;10.366;2022-12-24T07:39:10;64.83;;;33.90;;
43606;SDS011;29197;44.788;10.366;2022-12-24T07:41:58;67.37;;;36.77;;
43606;SDS011;29197;44.788;10.366;2022-12-24T07:44:48;76.93;;;36.70;;
43606;SDS011;29197;44.788;10.366;2022-12-24T07:47:37;63.47;;;33.73;;
43606;SDS011;29197;44.788;10.366;2022-12-24T07:50:25;75.60;;;38.10;;
43606;SDS011;29197;44.788;10.366;2022-12-24T07:53:17;69.13;;;36.73;;
43606;SDS011;29197;44.788;10.366;2022-12-24T07:56:06;64.30;;;34.47;;
43606;SDS011;29197;44.788;10.366;2022-12-24T07:58:58;67.00;;;35.57;;
43606;SDS011;29197;44.788;10.366;2022-12-24T08:01:48;72.17;;;37.20;;
43606;SDS011;29197;44.788;10.366;2022-12-24T08:04:37;69.07;;;35.90;;
43606;SDS011;29197;44.788;10.366;2022-12-24T08:07:26;70.97;;;37.13;;
43606;SDS011;29197;44.788;10.366;2022-12-24T08:10:18;69.07;;;36.67;;
43606;SDS011;29197;44.788;10.366;2022-12-24T08:13:07;64.80;;;34.57;;
43606;SDS011;29197;44.788;10.366;2022-12-24T08:15:56;70.70;;;37.53;;
43606;SDS011;29197;44.788;10.366;2022-12-24T08:18:46;68.30;;;35.40;;
43606;SDS011;29197;44.788;10.366;2022-12-24T08:21:35;69.03;;;36.43;;
43606;SDS011;29197;44.788;10.366;2022-12-24T08:24:24;70.67;;;36.57;;
43606;SDS011;29197;44.788;10.366;2022-12-24T08:27:16;71.20;;;37.10;;
43606;SDS011;29197;44.788;10.366;2022-12-24T08:30:06;74.77;;;36.57;;
43606;SDS011;29197;44.788;10.366;2022-12-24T08:32:55;68.10;;;35.47;;
43606;SDS011;29197;44.788;10.366;2022-12-24T08:35:48;72.57;;;37.83;;
43606;SDS011;29197;44.788;10.366;2022-12-24T08:38:39;73.17;;;37.33;;
43606;SDS011;29197;44.788;10.366;2022-12-24T08:41:29;67.27;;;36.97;;
43606;SDS011;29197;44.788;10.366;2022-12-24T08:44:19;68.10;;;35.47;;
43606;SDS011;29197;44.788;10.366;2022-12-24T08:47:08;71.90;;;37.20;;
43606;SDS011;29197;44.788;10.366;2022-12-24T08:49:57;70.13;;;35.80;;
43606;SDS011;29197;44.788;10.366;2022-12-24T08:52:46;68.03;;;36.07;;
43606;SDS011;29197;44.788;10.366;2022-12-24T08:55:35;67.80;;;37.47;;
43606;SDS011;29197;44.788;10.366;2022-12-24T08:58:25;71.10;;;36.40;;
43606;SDS011;29197;44.788;10.366;2022-12-24T09:01:17;66.10;;;36.77;;
43606;SDS011;29197;44.788;10.366;2022-12-24T09:04:06;65.33;;;33.80;;
43606;SDS011;29197;44.788;10.366;2022-12-24T09:06:56;63.33;;;34.13;;
43606;SDS011;29197;44.788;10.366;2022-12-24T09:09:44;68.90;;;36.83;;
43606;SDS011;29197;44.788;10.366;2022-12-24T09:12:34;74.03;;;36.47;;
43606;SDS011;29197;44.788;10.366;2022-12-24T09:15:22;70.63;;;37.87;;
43606;SDS011;29197;44.788;10.366;2022-12-24T09:18:15;67.67;;;35.83;;
43606;SDS011;29197;44.788;10.366;2022-12-24T09:21:05;75.83;;;38.17;;
43606;SDS011;29197;44.788;10.366;2022-12-24T09:23:55;76.50;;;39.43;;
43606;SDS011;29197;44.788;10.366;2022-12-24T09:26:46;71.80;;;39.07;;
43606;SDS011;29197;44.788;10.366;2022-12-24T09:29:43;69.67;;;38.93;;
43606;SDS011;29197;44.788;10.366;2022-12-24T09:32:31;72.27;;;39.97;;
43606;SDS011;29197;44.788;10.366;2022-12-24T09:35:22;72.47;;;39.80;;
43606;SDS011;29197;44.788;10.366;2022-12-24T09:38:11;73.57;;;40.10;;
43606;SDS011;29197;44.788;10.366;2022-12-24T09:41:01;77.93;;;40.70;;
43606;SDS011;29197;44.788;10.366;2022-12-24T09:44:01;76.40;;;42.00;;
43606;SDS011;29197;44.788;10.366;2022-12-24T09:46:55;84.43;;;45.10;;
43606;SDS011;29197;44.788;10.366;2022-12-24T09:49:56;76.30;;;43.40;;
43606;SDS011;29197;44.788;10.366;2022-12-24T09:52:49;79.33;;;45.13;;
43606;SDS011;29197;44.788;10.366;2022-12-24T09:55:42;79.07;;;43.90;;
43606;SDS011;29197;44.788;10.366;2022-12-24T09:58:36;79.77;;;45.40;;
43606;SDS011;29197;44.788;10.366;2022-12-24T10:01:28;84.10;;;45.03;;
43606;SDS011;29197;44.788;10.366;2022-12-24T10:04:19;79.50;;;44.03;;
43606;SDS011;29197;44.788;10.366;2022-12-24T10:07:16;79.07;;;40.93;;
43606;SDS011;29197;44.788;10.366;2022-12-24T10:10:19;79.27;;;43.63;;
43606;SDS011;29197;44.788;10.366;2022-12-24T10:13:15;80.30;;;44.30;;
43606;SDS011;29197;44.788;10.366;2022-12-24T10:16:11;88.27;;;46.30;;
43606;SDS011;29197;44.788;10.366;2022-12-24T10:19:08;79.70;;;44.00;;
43606;SDS011;29197;44.788;10.366;2022-12-24T10:22:04;83.73;;;44.67;;
43606;SDS011;29197;44.788;10.366;2022-12-24T10:25:02;91.20;;;47.13;;
43606;SDS011;29197;44.788;10.366;2022-12-24T10:27:55;84.93;;;44.10;;
43606;SDS011;29197;44.788;10.366;2022-12-24T10:30:48;81.37;;;44.23;;
43606;SDS011;29197;44.788;10.366;2022-12-24T10:33:46;81.97;;;43.93;;
43606;SDS011;29197;44.788;10.366;2022-12-24T10:36:40;82.77;;;44.53;;
43606;SDS011;29197;44.788;10.366;2022-12-24T10:39:30;86.17;;;45.73;;
43606;SDS011;29197;44.788;10.366;2022-12-24T10:42:18;81.67;;;44.03;;
43606;SDS011;29197;44.788;10.366;2022-12-24T10:45:13;87.40;;;46.07;;
43606;SDS011;29197;44.788;10.366;2022-12-24T10:48:04;87.67;;;45.73;;
43606;SDS011;29197;44.788;10.366;2022-12-24T10:50:59;87.60;;;43.23;;
43606;SDS011;29197;44.788;10.366;2022-12-24T10:53:51;89.97;;;46.73;;
43606;SDS011;29197;44.788;10.366;2022-12-24T10:56:44;91.33;;;44.60;;
43606;SDS011;29197;44.788;10.366;2022-12-24T10:59:40;90.17;;;46.67;;
43606;SDS011;29197;44.788;10.366;2022-12-24T11:02:37;90.23;;;46.67;;
43606;SDS011;29197;44.788;10.366;2022-12-24T11:05:27;85.77;;;45.10;;
43606;SDS011;29197;44.788;10.366;2022-12-24T11:08:19;89.60;;;47.00;;
43606;SDS011;29197;44.788;10.366;2022-12-24T11:11:10;81.70;;;44.23;;
43606;SDS011;29197;44.788;10.366;2022-12-24T11:14:00;87.80;;;44.77;;
43606;SDS011;29197;44.788;10.366;2022-12-24T11:16:50;81.67;;;44.70;;
43606;SDS011;29197;44.788;10.366;2022-12-24T11:19:42;86.97;;;45.80;;
43606;SDS011;29197;44.788;10.366;2022-12-24T11:22:36;81.30;;;44.57;;
43606;SDS011;29197;44.788;10.366;2022-12-24T11:25:27;86.80;;;45.60;;
43606;SDS011;29197;44.788;10.366;2022-12-24T11:28:19;85.43;;;43.87;;
43606;SDS011;29197;44.788;10.366;2022-12-24T11:31:17;85.90;;;45.07;;
43606;SDS011;29197;44.788;10.366;2022-12-24T11:34:20;85.13;;;44.83;;
43606;SDS011;29197;44.788;10.366;2022-12-24T11:37:15;86.53;;;45.50;;
43606;SDS011;29197;44.788;10.366;2022-12-24T11:40:16;95.73;;;48.20;;
43606;SDS011;29197;44.788;10.366;2022-12-24T11:43:11;84.53;;;44.23;;
43606;SDS011;29197;44.788;10.366;2022-12-24T11:46:10;88.03;;;47.23;;
43606;SDS011;29197;44.788;10.366;2022-12-24T11:49:05;92.30;;;48.83;;
43606;SDS011;29197;44.788;10.366;2022-12-24T11:55:14;87.57;;;47.00;;
43606;SDS011;29197;44.788;10.366;2022-12-24T11:58:11;92.40;;;46.13;;
43606;SDS011;29197;44.788;10.366;2022-12-24T12:01:11;93.07;;;48.73;;
43606;SDS011;29197;44.788;10.366;2022-12-24T12:04:09;87.33;;;48.10;;
43606;SDS011;29197;44.788;10.366;2022-12-24T12:07:03;91.83;;;46.77;;
43606;SDS011;29197;44.788;10.366;2022-12-24T12:10:04;88.80;;;47.63;;
43606;SDS011;29197;44.788;10.366;2022-12-24T12:12:59;91.07;;;46.50;;
43606;SDS011;29197;44.788;10.366;2022-12-24T12:15:59;93.07;;;46.63;;
43606;SDS011;29197;44.788;10.366;2022-12-24T12:18:53;104.33;;;48.50;;
43606;SDS011;29197;44.788;10.366;2022-12-24T12:21:47;92.53;;;48.00;;
43606;SDS011;29197;44.788;10.366;2022-12-24T12:24:38;93.97;;;45.97;;
43606;SDS011;29197;44.788;10.366;2022-12-24T12:27:36;88.57;;;47.43;;
43606;SDS011;29197;44.788;10.366;2022-12-24T12:30:30;83.10;;;46.97;;
43606;SDS011;29197;44.788;10.366;2022-12-24T12:33:23;102.20;;;48.50;;
43606;SDS011;29197;44.788;10.366;2022-12-24T12:36:20;93.93;;;48.43;;
43606;SDS011;29197;44.788;10.366;2022-12-24T12:39:13;96.27;;;50.07;;
43606;SDS011;29197;44.788;10.366;2022-12-24T12:42:05;96.73;;;49.70;;
43606;SDS011;29197;44.788;10.366;2022-12-24T12:45:05;105.43;;;55.20;;
43606;SDS011;29197;44.788;10.366;2022-12-24T12:51:34;97.33;;;52.20;;
43606;SDS011;29197;44.788;10.366;2022-12-24T12:54:36;104.63;;;50.90;;
43606;SDS011;29197;44.788;10.366;2022-12-24T12:57:37;100.47;;;50.20;;
43606;SDS011;29197;44.788;10.366;2022-12-24T13:00:28;107.00;;;55.77;;
43606;SDS011;29197;44.788;10.366;2022-12-24T13:03:41;99.87;;;51.50;;
43606;SDS011;29197;44.788;10.366;2022-12-24T13:06:42;101.73;;;53.20;;
43606;SDS011;29197;44.788;10.366;2022-12-24T13:09:56;103.93;;;52.57;;
43606;SDS011;29197;44.788;10.366;2022-12-24T13:13:05;104.27;;;53.70;;
43606;SDS011;29197;44.788;10.366;2022-12-24T13:16:21;102.40;;;53.57;;
43606;SDS011;29197;44.788;10.366;2022-12-24T13:19:28;100.67;;;53.07;;
43606;SDS011;29197;44.788;10.366;2022-12-24T13:22:25;96.77;;;51.63;;
43606;SDS011;29197;44.788;10.366;2022-12-24T13:25:19;104.27;;;54.47;;
43606;SDS011;29197;44.788;10.366;2022-12-24T13:28:16;99.30;;;51.33;;
43606;SDS011;29197;44.788;10.366;2022-12-24T13:31:24;102.37;;;51.53;;
43606;SDS011;29197;44.788;10.366;2022-12-24T13:34:31;101.40;;;53.03;;
43606;SDS011;29197;44.788;10.366;2022-12-24T13:37:31;96.60;;;51.70;;
43606;SDS011;29197;44.788;10.366;2022-12-24T13:40:22;103.43;;;52.97;;
43606;SDS011;29197;44.788;10.366;2022-12-24T13:43:13;98.83;;;52.40;;
43606;SDS011;29197;44.788;10.366;2022-12-24T13:46:03;105.77;;;53.93;;
43606;SDS011;29197;44.788;10.366;2022-12-24T13:48:55;106.60;;;54.80;;
43606;SDS011;29197;44.788;10.366;2022-12-24T13:51:44;108.20;;;55.17;;
43606;SDS011;29197;44.788;10.366;2022-12-24T13:54:33;103.00;;;53.43;;
43606;SDS011;29197;44.788;10.366;2022-12-24T13:57:27;107.90;;;54.40;;
43606;SDS011;29197;44.788;10.366;2022-12-24T14:00:27;103.57;;;54.33;;
43606;SDS011;29197;44.788;10.366;2022-12-24T14:03:23;102.43;;;55.47;;
43606;SDS011;29197;44.788;10.366;2022-12-24T14:06:21;99.37;;;54.13;;
43606;SDS011;29197;44.788;10.366;2022-12-24T14:09:14;102.63;;;53.13;;
43606;SDS011;29197;44.788;10.366;2022-12-24T14:18:57;102.10;;;52.50;;
43606;SDS011;29197;44.788;10.366;2022-12-24T14:21:56;100.20;;;53.67;;
43606;SDS011;29197;44.788;10.366;2022-12-24T14:24:52;106.93;;;54.60;;
43606;SDS011;29197;44.788;10.366;2022-12-24T14:27:44;104.93;;;55.17;;
43606;SDS011;29197;44.788;10.366;2022-12-24T14:30:36;105.30;;;52.67;;
43606;SDS011;29197;44.788;10.366;2022-12-24T14:33:29;106.23;;;55.50;;
43606;SDS011;29197;44.788;10.366;2022-12-24T14:36:19;118.97;;;58.33;;
43606;SDS011;29197;44.788;10.366;2022-12-24T14:39:18;110.03;;;55.43;;
43606;SDS011;29197;44.788;10.366;2022-12-24T14:42:21;107.10;;;55.00;;
43606;SDS011;29197;44.788;10.366;2022-12-24T14:45:23;105.93;;;55.60;;
43606;SDS011;29197;44.788;10.366;2022-12-24T14:48:18;108.23;;;56.27;;
43606;SDS011;29197;44.788;10.366;2022-12-24T14:51:16;102.53;;;53.90;;
43606;SDS011;29197;44.788;10.366;2022-12-24T14:54:23;108.33;;;54.17;;
43606;SDS011;29197;44.788;10.366;2022-12-24T14:57:22;109.57;;;56.03;;
43606;SDS011;29197;44.788;10.366;2022-12-24T15:00:17;116.03;;;56.13;;
43606;SDS011;29197;44.788;10.366;2022-12-24T15:03:09;109.67;;;54.67;;
43606;SDS011;29197;44.788;10.366;2022-12-24T15:06:01;112.33;;;57.87;;
43606;SDS011;29197;44.788;10.366;2022-12-24T15:08:51;117.50;;;58.43;;
43606;SDS011;29197;44.788;10.366;2022-12-24T15:11:43;109.37;;;55.37;;
43606;SDS011;29197;44.788;10.366;2022-12-24T15:14:37;114.90;;;56.80;;
43606;SDS011;29197;44.788;10.366;2022-12-24T15:17:29;114.30;;;57.20;;
43606;SDS011;29197;44.788;10.366;2022-12-24T15:20:23;106.03;;;56.47;;
43606;SDS011;29197;44.788;10.366;2022-12-24T15:23:17;108.10;;;54.60;;
43606;SDS011;29197;44.788;10.366;2022-12-24T15:26:08;117.53;;;59.10;;
43606;SDS011;29197;44.788;10.366;2022-12-24T15:29:18;114.60;;;55.97;;
43606;SDS011;29197;44.788;10.366;2022-12-24T15:32:10;118.70;;;58.17;;
43606;SDS011;29197;44.788;10.366;2022-12-24T15:35:01;119.70;;;59.47;;
43606;SDS011;29197;44.788;10.366;2022-12-24T15:37:51;114.53;;;61.97;;
43606;SDS011;29197;44.788;10.366;2022-12-24T15:40:40;118.53;;;60.17;;
43606;SDS011;29197;44.788;10.366;2022-12-24T15:43:37;118.83;;;59.13;;
43606;SDS011;29197;44.788;10.366;2022-12-24T15:46:30;115.27;;;60.17;;
43606;SDS011;29197;44.788;10.366;2022-12-24T15:49:20;116.90;;;58.67;;
43606;SDS011;29197;44.788;10.366;2022-12-24T15:52:11;118.37;;;58.33;;
43606;SDS011;29197;44.788;10.366;2022-12-24T15:55:02;118.83;;;60.60;;
43606;SDS011;29197;44.788;10.366;2022-12-24T15:57:52;113.70;;;57.00;;
43606;SDS011;29197;44.788;10.366;2022-12-24T16:00:42;120.03;;;63.07;;
43606;SDS011;29197;44.788;10.366;2022-12-24T16:03:32;108.73;;;58.37;;
43606;SDS011;29197;44.788;10.366;2022-12-24T16:06:22;120.60;;;60.87;;
43606;SDS011;29197;44.788;10.366;2022-12-24T16:09:28;115.67;;;58.80;;
43606;SDS011;29197;44.788;10.366;2022-12-24T16:12:19;108.27;;;57.40;;
43606;SDS011;29197;44.788;10.366;2022-12-24T16:15:11;119.87;;;60.57;;
43606;SDS011;29197;44.788;10.366;2022-12-24T16:18:03;106.37;;;57.90;;
43606;SDS011;29197;44.788;10.366;2022-12-24T16:20:54;115.57;;;61.47;;
43606;SDS011;29197;44.788;10.366;2022-12-24T16:23:44;111.10;;;59.13;;
43606;SDS011;29197;44.788;10.366;2022-12-24T16:26:35;115.93;;;59.87;;
43606;SDS011;29197;44.788;10.366;2022-12-24T16:29:25;116.63;;;60.67;;
43606;SDS011;29197;44.788;10.366;2022-12-24T16:32:16;116.23;;;61.20;;
43606;SDS011;29197;44.788;10.366;2022-12-24T16:35:20;120.27;;;61.47;;
43606;SDS011;29197;44.788;10.366;2022-12-24T16:38:14;115.03;;;59.83;;
43606;SDS011;29197;44.788;10.366;2022-12-24T16:41:03;114.93;;;61.00;;
43606;SDS011;29197;44.788;10.366;2022-12-24T16:43:53;118.83;;;58.33;;
43606;SDS011;29197;44.788;10.366;2022-12-24T16:46:41;117.27;;;60.77;;
43606;SDS011;29197;44.788;10.366;2022-12-24T16:49:30;110.63;;;57.67;;
43606;SDS011;29197;44.788;10.366;2022-12-24T16:52:24;111.37;;;58.00;;
43606;SDS011;29197;44.788;10.366;2022-12-24T16:55:16;108.60;;;59.27;;